Time;durP1;ratioP1;P1;durP2;ratioP2;P2;SDS_P1;SDS_P2;PMS_P1;PMS_P2;Temp;Humidity;BMP_temperature;BMP_pressure;BME280_temperature;BME280_humidity;BME280_pressure;Samples;Min_cycle;Max_cycle;Signal;HPM_P1;HPM_P2
2021/03/12 00:00:23;;;;;;;0.30;0.30;;;7.70;99.90;;;;;;4413210;32;20058;-71
2021/03/12 00:02:48;;;;;;;0.75;0.75;;;7.60;99.90;;;;;;4412300;32;20094;-72
2021/03/12 00:05:15;;;;;;;0.45;0.45;;;7.70;99.90;;;;;;4414495;32;20423;-72
2021/03/12 00:07:41;;;;;;;0.30;0.30;;;7.60;99.90;;;;;;4413508;32;20527;-72
2021/03/12 00:10:12;;;;;;;0.35;0.35;;;7.60;99.90;;;;;;4424826;32;20131;-72
2021/03/12 00:12:38;;;;;;;0.40;0.40;;;7.60;99.90;;;;;;4428812;32;20061;-72
2021/03/12 00:15:09;;;;;;;0.30;0.30;;;7.60;99.90;;;;;;4428347;32;20057;-72
2021/03/12 00:17:35;;;;;;;0.32;0.32;;;7.60;99.90;;;;;;4428676;32;20619;-72
2021/03/12 00:20:00;;;;;;;0.47;0.43;;;7.60;99.90;;;;;;4428520;32;20065;-72
2021/03/12 00:22:26;;;;;;;0.30;0.30;;;7.70;99.90;;;;;;4429271;32;20116;-72
2021/03/12 00:24:51;;;;;;;0.40;0.40;;;7.60;99.90;;;;;;4428628;32;20061;-72
2021/03/12 00:27:17;;;;;;;0.32;0.32;;;7.60;99.90;;;;;;4428611;32;20069;-72
2021/03/12 00:29:42;;;;;;;0.47;0.37;;;7.60;99.90;;;;;;4427881;32;20164;-72
2021/03/12 00:32:08;;;;;;;0.93;0.55;;;7.60;99.90;;;;;;4428316;32;20089;-72
2021/03/12 00:34:34;;;;;;;0.30;0.30;;;7.60;99.90;;;;;;4428452;32;20078;-72
2021/03/12 00:36:59;;;;;;;0.40;0.40;;;7.60;99.90;;;;;;4428883;32;20125;-73
2021/03/12 00:39:25;;;;;;;0.30;0.30;;;7.50;99.90;;;;;;4428192;32;20691;-73
2021/03/12 00:41:52;;;;;;;0.40;0.40;;;7.60;99.90;;;;;;4429871;32;20178;-73
2021/03/12 00:44:19;;;;;;;0.32;0.32;;;7.50;99.90;;;;;;4428322;32;20118;-73
2021/03/12 00:46:44;;;;;;;0.30;0.30;;;7.60;99.90;;;;;;4428200;32;20068;-73
2021/03/12 00:49:10;;;;;;;0.50;0.50;;;7.60;99.90;;;;;;4428381;32;20074;-73
2021/03/12 00:51:35;;;;;;;2.22;0.80;;;7.60;99.90;;;;;;4429070;32;20073;-73
2021/03/12 00:54:01;;;;;;;0.30;0.30;;;7.60;99.90;;;;;;4430957;32;20081;-71
2021/03/12 00:56:26;;;;;;;0.93;0.77;;;7.60;99.90;;;;;;4431991;32;20073;-71
2021/03/12 00:58:52;;;;;;;0.30;0.30;;;7.60;99.90;;;;;;4431598;32;20116;-73
2021/03/12 01:01:17;;;;;;;0.30;0.30;;;7.50;99.90;;;;;;4431237;32;20129;-73
2021/03/12 01:03:44;;;;;;;0.30;0.30;;;7.50;99.90;;;;;;4430951;32;20069;-73
2021/03/12 01:06:09;;;;;;;0.45;0.45;;;7.40;99.90;;;;;;4430840;32;20097;-73
2021/03/12 01:08:35;;;;;;;0.40;0.40;;;7.40;99.90;;;;;;4428731;32;20074;-73
2021/03/12 01:11:01;;;;;;;0.45;0.40;;;7.40;99.90;;;;;;4414688;32;20465;-73
2021/03/12 01:13:26;;;;;;;1.30;1.20;;;7.40;99.90;;;;;;4415538;32;20062;-73
2021/03/12 01:15:52;;;;;;;0.40;0.40;;;7.40;99.90;;;;;;4416573;32;20066;-73
2021/03/12 01:18:17;;;;;;;0.35;0.35;;;7.40;99.90;;;;;;4415424;32;20074;-73
2021/03/12 01:20:43;;;;;;;3.62;0.70;;;7.40;99.90;;;;;;4415041;32;20097;-73
2021/03/12 01:23:09;;;;;;;0.40;0.40;;;7.30;99.90;;;;;;4415538;32;20086;-73
2021/03/12 01:25:39;;;;;;;0.30;0.30;;;7.30;99.90;;;;;;4415512;32;20069;-73
2021/03/12 01:28:06;;;;;;;1.60;0.90;;;7.30;99.90;;;;;;4414751;32;20077;-73
2021/03/12 01:30:35;;;;;;;0.40;0.40;;;7.30;99.90;;;;;;4416733;32;20605;-73
2021/03/12 01:33:01;;;;;;;6.60;0.70;;;7.30;99.90;;;;;;4415351;32;20132;-73
2021/03/12 01:35:27;;;;;;;0.20;0.20;;;7.20;99.90;;;;;;4415263;32;20074;-73
2021/03/12 01:37:52;;;;;;;0.40;0.40;;;7.20;99.90;;;;;;4415361;32;20506;-73
2021/03/12 01:40:20;;;;;;;0.30;0.30;;;7.10;99.90;;;;;;4414972;32;20453;-73
2021/03/12 01:42:46;;;;;;;0.30;0.30;;;7.10;99.90;;;;;;4415921;32;20137;-73
2021/03/12 01:45:15;;;;;;;1.48;1.08;;;7.10;99.90;;;;;;4414877;32;20510;-73
2021/03/12 01:47:41;;;;;;;0.30;0.30;;;7.10;99.90;;;;;;4414946;32;20081;-73
2021/03/12 01:50:07;;;;;;;0.68;0.68;;;7.00;99.90;;;;;;4416115;32;20077;-73
2021/03/12 01:52:34;;;;;;;0.40;0.40;;;7.00;99.90;;;;;;4415744;32;20057;-73
2021/03/12 01:54:59;;;;;;;0.30;0.30;;;7.00;99.90;;;;;;4416207;32;20065;-73
2021/03/12 01:57:25;;;;;;;0.30;0.30;;;6.90;99.90;;;;;;4416021;32;20082;-73
2021/03/12 01:59:51;;;;;;;0.40;0.40;;;6.90;99.90;;;;;;4414296;32;20074;-73
2021/03/12 02:02:17;;;;;;;0.20;0.20;;;6.70;99.90;;;;;;4414761;32;20087;-72
2021/03/12 02:04:42;;;;;;;0.30;0.30;;;6.60;99.90;;;;;;4415181;32;20094;-72
2021/03/12 02:07:08;;;;;;;0.30;0.30;;;6.40;99.90;;;;;;4414694;32;20069;-73
2021/03/12 02:09:34;;;;;;;0.40;0.40;;;6.40;99.90;;;;;;4422608;32;20069;-73
2021/03/12 02:12:24;;;;;;;0.30;0.30;;;6.40;99.90;;;;;;4430244;32;20069;-73
2021/03/12 02:15:05;;;;;;;0.30;0.30;;;6.40;99.90;;;;;;4429250;32;20518;-72
2021/03/12 02:17:39;;;;;;;0.60;0.60;;;6.40;99.90;;;;;;4430186;32;20124;-72
2021/03/12 02:20:30;;;;;;;0.75;0.55;;;6.30;99.90;;;;;;4430979;32;20537;-72
2021/03/12 02:23:12;;;;;;;0.40;0.40;;;6.40;99.90;;;;;;4429181;32;20404;-73
2021/03/12 02:25:45;;;;;;;1.33;1.20;;;6.40;99.90;;;;;;4429882;32;20119;-73
2021/03/12 02:28:11;;;;;;;0.65;0.57;;;6.40;99.90;;;;;;4429357;32;20124;-72
2021/03/12 02:30:38;;;;;;;1.12;0.88;;;6.40;99.90;;;;;;4429958;32;20082;-73
2021/03/12 02:33:04;;;;;;;0.32;0.32;;;6.40;99.90;;;;;;4430099;32;20491;-73
2021/03/12 02:35:32;;;;;;;0.30;0.30;;;6.40;99.90;;;;;;4430241;32;20062;-73
2021/03/12 02:37:58;;;;;;;0.62;0.62;;;6.40;99.90;;;;;;4429596;32;20076;-73
2021/03/12 02:40:25;;;;;;;0.30;0.30;;;6.30;99.90;;;;;;4430063;32;20257;-73
2021/03/12 02:42:51;;;;;;;0.37;0.37;;;6.30;99.90;;;;;;4429713;32;20065;-73
2021/03/12 02:45:19;;;;;;;0.30;0.30;;;6.20;99.90;;;;;;4429804;32;20078;-73
2021/03/12 02:47:45;;;;;;;0.30;0.30;;;6.20;99.90;;;;;;4429641;32;20112;-73
2021/03/12 02:50:12;;;;;;;0.20;0.20;;;6.10;99.90;;;;;;4429686;32;20070;-72
2021/03/12 02:52:39;;;;;;;0.35;0.35;;;6.10;99.90;;;;;;4429655;32;20069;-73
2021/03/12 02:55:06;;;;;;;0.30;0.30;;;6.10;99.90;;;;;;4429491;32;20124;-73
2021/03/12 02:57:32;;;;;;;0.37;0.37;;;6.00;99.90;;;;;;4429536;32;20081;-73
2021/03/12 02:59:58;;;;;;;0.60;0.60;;;6.00;99.90;;;;;;4430083;32;20077;-72
2021/03/12 03:02:25;;;;;;;0.62;0.62;;;6.00;99.90;;;;;;4429447;32;20157;-73
2021/03/12 03:04:54;;;;;;;0.30;0.30;;;6.00;99.90;;;;;;4429443;32;20073;-73
2021/03/12 03:07:20;;;;;;;0.40;0.40;;;5.90;99.90;;;;;;4429692;32;20078;-73
2021/03/12 03:09:46;;;;;;;0.30;0.30;;;5.90;99.90;;;;;;4420416;32;20123;-73
2021/03/12 03:12:17;;;;;;;0.40;0.40;;;5.90;99.90;;;;;;4413970;32;20065;-73
2021/03/12 03:14:46;;;;;;;0.40;0.40;;;5.80;99.90;;;;;;4414685;32;20086;-72
2021/03/12 03:17:12;;;;;;;0.40;0.40;;;5.90;99.90;;;;;;4414138;32;20065;-73
2021/03/12 03:19:40;;;;;;;0.40;0.40;;;5.90;99.90;;;;;;4414356;32;20069;-73
2021/03/12 03:22:07;;;;;;;1.65;0.52;;;5.80;99.90;;;;;;4413446;32;20121;-73
2021/03/12 03:24:32;;;;;;;0.30;0.30;;;5.80;99.90;;;;;;4414072;32;20519;-73
2021/03/12 03:26:58;;;;;;;0.22;0.22;;;5.80;99.90;;;;;;4414176;32;20165;-73
2021/03/12 03:29:25;;;;;;;0.37;0.37;;;5.90;99.90;;;;;;4413511;32;20069;-72
2021/03/12 03:31:51;;;;;;;0.25;0.25;;;5.80;99.90;;;;;;4413677;32;20413;-72
2021/03/12 03:34:16;;;;;;;0.45;0.45;;;5.90;99.90;;;;;;4415115;32;20125;-71
2021/03/12 03:36:43;;;;;;;0.30;0.30;;;5.80;99.90;;;;;;4415021;32;20432;-73
2021/03/12 03:39:09;;;;;;;0.37;0.37;;;5.80;99.90;;;;;;4413378;32;20065;-72
2021/03/12 03:41:42;;;;;;;0.40;0.40;;;5.80;99.90;;;;;;4413585;32;20066;-72
2021/03/12 03:44:09;;;;;;;0.45;0.45;;;5.80;99.90;;;;;;4414015;32;20478;-73
2021/03/12 03:46:38;;;;;;;0.30;0.30;;;5.80;99.90;;;;;;4413644;32;20066;-73
2021/03/12 03:49:06;;;;;;;0.40;0.40;;;5.90;99.90;;;;;;4414011;32;20479;-73
2021/03/12 03:51:32;;;;;;;0.20;0.20;;;5.80;99.90;;;;;;4413551;32;20244;-73
2021/03/12 03:53:57;;;;;;;0.30;0.30;;;5.80;99.90;;;;;;4413754;32;20073;-73
2021/03/12 03:56:23;;;;;;;0.32;0.32;;;5.80;99.90;;;;;;4413407;32;20099;-72
2021/03/12 03:58:49;;;;;;;0.30;0.30;;;5.80;99.90;;;;;;4413361;32;20491;-73
2021/03/12 04:01:16;;;;;;;0.47;0.47;;;5.80;99.90;;;;;;4413600;32;20074;-73
2021/03/12 04:03:42;;;;;;;0.50;0.50;;;5.80;99.90;;;;;;4413800;32;20065;-73
2021/03/12 04:06:09;;;;;;;0.30;0.30;;;5.90;99.90;;;;;;4413700;32;20123;-72
2021/03/12 04:08:36;;;;;;;0.28;0.28;;;5.90;99.90;;;;;;4416540;32;20061;-73
2021/03/12 04:11:02;;;;;;;0.37;0.37;;;5.80;99.90;;;;;;4429461;32;20124;-73
2021/03/12 04:13:28;;;;;;;0.30;0.30;;;5.80;99.90;;;;;;4428448;32;20073;-73
2021/03/12 04:15:54;;;;;;;2.55;0.65;;;5.80;99.90;;;;;;4428682;32;20122;-72
2021/03/12 04:18:21;;;;;;;0.60;0.60;;;5.80;99.90;;;;;;4428683;32;20510;-73
2021/03/12 04:20:47;;;;;;;0.30;0.30;;;5.80;99.90;;;;;;4429229;32;20120;-73
2021/03/12 04:23:13;;;;;;;0.30;0.30;;;5.90;99.90;;;;;;4428657;32;20068;-73
2021/03/12 04:25:39;;;;;;;0.40;0.40;;;5.80;99.90;;;;;;4428538;32;20134;-73
2021/03/12 04:28:05;;;;;;;0.30;0.30;;;5.80;99.90;;;;;;4428026;32;20069;-71
2021/03/12 04:30:31;;;;;;;0.30;0.30;;;5.80;99.90;;;;;;4428915;32;20086;-71
2021/03/12 04:32:57;;;;;;;0.50;0.50;;;5.80;99.90;;;;;;4429041;32;20065;-72
2021/03/12 04:35:23;;;;;;;0.80;0.57;;;5.70;99.90;;;;;;4429698;32;20077;-73
2021/03/12 04:37:49;;;;;;;0.50;0.50;;;5.70;99.90;;;;;;4428503;32;20085;-73
2021/03/12 04:40:15;;;;;;;0.40;0.40;;;5.70;99.90;;;;;;4428364;32;20112;-73
2021/03/12 04:42:44;;;;;;;0.40;0.40;;;5.70;99.90;;;;;;4428473;32;20127;-73
2021/03/12 04:45:11;;;;;;;0.30;0.30;;;5.70;99.90;;;;;;4428634;32;20112;-72
2021/03/12 04:47:36;;;;;;;0.30;0.30;;;5.80;99.90;;;;;;4429289;32;20097;-72
2021/03/12 04:50:05;;;;;;;0.35;0.35;;;5.80;99.90;;;;;;4428294;32;20058;-71
2021/03/12 04:52:31;;;;;;;0.30;0.30;;;5.80;99.90;;;;;;4428120;32;20086;-71
2021/03/12 04:55:00;;;;;;;0.40;0.40;;;5.80;99.90;;;;;;4428307;32;20066;-72
2021/03/12 04:57:25;;;;;;;0.30;0.30;;;5.80;99.90;;;;;;4429331;32;20499;-72
2021/03/12 04:59:55;;;;;;;0.30;0.30;;;5.70;99.90;;;;;;4429339;32;20159;-72
2021/03/12 05:02:20;;;;;;;0.30;0.30;;;5.70;99.90;;;;;;4428147;32;20085;-71
2021/03/12 05:04:49;;;;;;;0.70;0.50;;;5.70;99.90;;;;;;4428312;32;20128;-73
2021/03/12 05:07:19;;;;;;;0.30;0.30;;;5.70;99.90;;;;;;4428053;32;20081;-72
2021/03/12 05:09:45;;;;;;;0.30;0.30;;;5.70;99.90;;;;;;4417891;32;20071;-72
2021/03/12 05:12:11;;;;;;;0.35;0.35;;;5.70;99.90;;;;;;4413084;32;20507;-72
2021/03/12 05:14:36;;;;;;;6.47;1.98;;;5.70;99.90;;;;;;4413515;32;20113;-72
2021/03/12 05:17:02;;;;;;;0.30;0.30;;;5.70;99.90;;;;;;4413006;32;20077;-72
2021/03/12 05:19:28;;;;;;;0.40;0.40;;;5.60;99.90;;;;;;4413275;32;20388;-71
2021/03/12 05:21:55;;;;;;;0.30;0.30;;;5.70;99.90;;;;;;4412597;32;20129;-73
2021/03/12 05:24:21;;;;;;;0.30;0.30;;;5.60;99.90;;;;;;4412619;32;20112;-73
2021/03/12 05:26:46;;;;;;;1.17;0.75;;;5.70;99.90;;;;;;4412567;32;20069;-73
2021/03/12 05:29:12;;;;;;;0.30;0.30;;;5.70;99.90;;;;;;4412498;32;20077;-73
2021/03/12 05:31:37;;;;;;;3.42;1.05;;;5.60;99.90;;;;;;4412761;32;20125;-71
2021/03/12 05:34:03;;;;;;;0.30;0.30;;;5.60;99.90;;;;;;4412234;32;20074;-72
2021/03/12 05:36:28;;;;;;;0.30;0.30;;;5.60;99.90;;;;;;4413376;32;20138;-73
2021/03/12 05:38:54;;;;;;;0.40;0.40;;;5.60;99.90;;;;;;4415429;32;20061;-73
2021/03/12 05:41:20;;;;;;;0.50;0.50;;;5.60;99.90;;;;;;4415975;32;20069;-73
2021/03/12 05:43:46;;;;;;;0.35;0.35;;;5.60;99.90;;;;;;4416161;32;20082;-73
2021/03/12 05:46:13;;;;;;;0.30;0.30;;;5.60;99.90;;;;;;4415440;32;20069;-73
2021/03/12 05:48:40;;;;;;;0.30;0.30;;;5.60;99.90;;;;;;4415000;32;20128;-72
2021/03/12 05:51:05;;;;;;;0.30;0.30;;;5.60;99.90;;;;;;4416510;32;20514;-73
2021/03/12 05:53:31;;;;;;;0.40;0.40;;;5.60;99.90;;;;;;4414835;32;20129;-73
2021/03/12 05:55:57;;;;;;;0.30;0.30;;;5.60;99.90;;;;;;4416194;32;20120;-71
2021/03/12 05:58:23;;;;;;;0.37;0.37;;;5.50;99.90;;;;;;4415574;32;20120;-73
2021/03/12 06:00:49;;;;;;;0.40;0.40;;;5.50;99.90;;;;;;4415427;32;20066;-71
2021/03/12 06:03:15;;;;;;;0.30;0.30;;;5.50;99.90;;;;;;4417463;32;20553;-73
2021/03/12 06:05:44;;;;;;;1.85;1.20;;;5.60;99.90;;;;;;4414851;32;20511;-71
2021/03/12 06:08:10;;;;;;;0.50;0.50;;;5.60;99.90;;;;;;4416496;32;20511;-72
2021/03/12 06:10:35;;;;;;;0.25;0.25;;;5.60;99.90;;;;;;4429727;32;20069;-72
2021/03/12 06:13:01;;;;;;;0.30;0.30;;;5.50;99.90;;;;;;4418819;32;20127;-73
2021/03/12 06:15:43;;;;;;;0.30;0.30;;;5.50;99.90;;;;;;4415853;32;20116;-71
2021/03/12 06:18:18;;;;;;;2.53;0.88;;;5.50;99.90;;;;;;4415188;32;20074;-73
2021/03/12 06:20:44;;;;;;;0.30;0.30;;;5.50;99.90;;;;;;4402811;32;20515;-73
2021/03/12 06:23:09;;;;;;;0.37;0.37;;;5.50;99.90;;;;;;4414976;32;20066;-74
2021/03/12 06:25:35;;;;;;;0.50;0.50;;;5.50;99.90;;;;;;4415029;32;20069;-72
2021/03/12 06:28:18;;;;;;;0.60;0.35;;;5.60;99.90;;;;;;4414447;32;20381;-73
2021/03/12 06:30:45;;;;;;;0.30;0.30;;;5.60;99.90;;;;;;4414637;32;20065;-73
2021/03/12 06:33:32;;;;;;;4.95;0.88;;;5.70;99.90;;;;;;4414485;32;20069;-73
2021/03/12 06:36:00;;;;;;;0.35;0.35;;;5.70;99.90;;;;;;4414193;32;20081;-73
2021/03/12 06:38:26;;;;;;;0.37;0.37;;;5.70;99.90;;;;;;4414187;32;20125;-72
2021/03/12 06:40:52;;;;;;;0.43;0.43;;;5.80;99.90;;;;;;4414059;32;20077;-72
2021/03/12 06:43:20;;;;;;;0.30;0.30;;;5.80;99.90;;;;;;4415027;32;20128;-72
2021/03/12 06:45:51;;;;;;;0.40;0.40;;;5.80;99.90;;;;;;4415026;32;20089;-71
2021/03/12 06:48:19;;;;;;;0.30;0.30;;;5.80;99.90;;;;;;4414112;32;20065;-72
2021/03/12 06:50:47;;;;;;;0.40;0.40;;;5.90;99.90;;;;;;4413364;32;20086;-72
2021/03/12 06:53:34;;;;;;;0.40;0.40;;;5.80;99.90;;;;;;4414594;32;20098;-72
2021/03/12 06:56:03;;;;;;;0.40;0.40;;;5.80;99.90;;;;;;4413462;32;20073;-73
2021/03/12 06:58:29;;;;;;;3.20;1.80;;;5.70;99.90;;;;;;4413851;32;20091;-71
2021/03/12 07:00:55;;;;;;;0.40;0.40;;;5.70;99.90;;;;;;4413874;32;20069;-73
2021/03/12 07:03:31;;;;;;;0.43;0.43;;;5.80;99.90;;;;;;4414070;32;20078;-73
2021/03/12 07:06:12;;;;;;;0.32;0.32;;;5.80;99.90;;;;;;4414295;32;20078;-73
2021/03/12 07:08:40;;;;;;;0.30;0.30;;;5.90;99.90;;;;;;4414376;32;20121;-73
2021/03/12 07:11:23;;;;;;;0.40;0.40;;;5.90;99.90;;;;;;4413508;32;20144;-73
2021/03/12 07:13:52;;;;;;;0.37;0.37;;;5.90;99.90;;;;;;4413649;32;20061;-73
2021/03/12 07:16:19;;;;;;;0.47;0.47;;;6.00;99.90;;;;;;4414023;32;20120;-73
2021/03/12 07:18:44;;;;;;;1.27;0.60;;;6.00;99.90;;;;;;4414474;32;20061;-73
2021/03/12 07:21:12;;;;;;;0.35;0.35;;;6.00;99.90;;;;;;4413790;32;20202;-73
2021/03/12 07:23:41;;;;;;;0.40;0.40;;;6.00;99.90;;;;;;4413527;32;20066;-73
2021/03/12 07:26:10;;;;;;;0.40;0.40;;;6.10;99.90;;;;;;4412855;32;20077;-71
2021/03/12 07:28:38;;;;;;;0.30;0.30;;;6.10;99.90;;;;;;4412419;32;20095;-73
2021/03/12 07:31:05;;;;;;;0.40;0.40;;;6.10;99.90;;;;;;4412927;32;20069;-73
2021/03/12 07:33:34;;;;;;;0.30;0.30;;;6.10;99.90;;;;;;4414375;32;20074;-72
2021/03/12 07:36:02;;;;;;;0.40;0.40;;;6.20;99.90;;;;;;4414031;32;20074;-73
2021/03/12 07:38:32;;;;;;;0.30;0.30;;;6.30;99.90;;;;;;4414267;32;20057;-73
2021/03/12 07:40:58;;;;;;;1.10;0.98;;;6.30;99.90;;;;;;4408033;32;20078;-73
2021/03/12 07:43:24;;;;;;;0.40;0.40;;;6.40;99.90;;;;;;4411842;32;20069;-73
2021/03/12 07:45:50;;;;;;;0.40;0.40;;;6.40;99.90;;;;;;4412281;32;20491;-73
2021/03/12 07:48:16;;;;;;;3.40;0.52;;;6.40;99.90;;;;;;4411284;32;20086;-73
2021/03/12 07:50:41;;;;;;;0.32;0.32;;;6.40;99.90;;;;;;4411209;32;20085;-73
2021/03/12 07:53:07;;;;;;;0.40;0.40;;;6.40;99.90;;;;;;4409585;32;20066;-73
2021/03/12 07:55:38;;;;;;;0.30;0.30;;;6.50;99.90;;;;;;4412499;32;20077;-72
2021/03/12 07:58:05;;;;;;;0.50;0.50;;;6.50;99.90;;;;;;4411306;32;20057;-72
2021/03/12 08:00:51;;;;;;;1.25;0.98;;;6.60;99.90;;;;;;4411504;32;20086;-73
2021/03/12 08:03:41;;;;;;;0.30;0.30;;;6.50;99.90;;;;;;4412019;32;20076;-73
2021/03/12 08:06:24;;;;;;;0.20;0.20;;;6.60;99.90;;;;;;4413123;32;20069;-73
2021/03/12 08:08:50;;;;;;;0.40;0.40;;;6.50;99.90;;;;;;4416639;32;20074;-73
2021/03/12 08:11:33;;;;;;;0.30;0.30;;;6.50;99.90;;;;;;4418558;32;20073;-73
2021/03/12 08:14:13;;;;;;;0.68;0.68;;;6.60;99.90;;;;;;4412712;32;20065;-73
2021/03/12 08:17:02;;;;;;;0.30;0.30;;;6.60;99.90;;;;;;4412863;32;20077;-73
2021/03/12 08:19:31;;;;;;;0.40;0.40;;;6.70;99.90;;;;;;4412429;32;20066;-73
2021/03/12 08:21:57;;;;;;;0.32;0.32;;;6.70;99.90;;;;;;4412386;32;20085;-73
2021/03/12 08:24:45;;;;;;;0.40;0.40;;;6.80;99.90;;;;;;4410413;32;20636;-73
2021/03/12 08:27:11;;;;;;;1.85;0.77;;;6.80;99.90;;;;;;4412496;32;20081;-73
2021/03/12 08:29:42;;;;;;;0.57;0.57;;;6.90;99.90;;;;;;4414038;32;20530;-73
2021/03/12 08:32:36;;;;;;;0.55;0.55;;;6.80;99.90;;;;;;4407662;32;20465;-72
2021/03/12 08:35:04;;;;;;;0.20;0.20;;;7.00;99.90;;;;;;4411724;32;20089;-72
2021/03/12 08:37:32;;;;;;;0.35;0.35;;;7.10;99.90;;;;;;4412711;32;20527;-73
2021/03/12 08:40:18;;;;;;;0.40;0.40;;;7.20;99.90;;;;;;4412259;32;20503;-73
2021/03/12 08:42:57;;;;;;;0.35;0.35;;;7.30;99.90;;;;;;4402605;32;20090;-73
2021/03/12 08:45:42;;;;;;;0.30;0.30;;;7.30;99.90;;;;;;4408642;32;20062;-72
2021/03/12 08:48:10;;;;;;;0.45;0.45;;;7.30;99.90;;;;;;4409052;32;20085;-73
2021/03/12 08:50:42;;;;;;;1.10;1.00;;;7.20;99.90;;;;;;4406813;32;20069;-72
2021/03/12 08:53:08;;;;;;;0.43;0.43;;;7.30;99.90;;;;;;4402491;32;20244;-73
2021/03/12 08:55:35;;;;;;;0.57;0.57;;;7.30;99.90;;;;;;4406469;32;20078;-72
2021/03/12 08:58:21;;;;;;;2.72;0.98;;;7.30;99.90;;;;;;4403625;32;20106;-72
2021/03/12 09:00:49;;;;;;;0.40;0.40;;;7.30;99.90;;;;;;4407812;32;20070;-72
2021/03/12 09:03:17;;;;;;;0.30;0.30;;;7.30;99.90;;;;;;4405422;32;20527;-74
2021/03/12 09:05:44;;;;;;;0.50;0.50;;;7.20;99.90;;;;;;4407808;32;20086;-72
2021/03/12 09:08:09;;;;;;;0.40;0.40;;;7.20;99.90;;;;;;4408942;32;20614;-73
2021/03/12 09:10:35;;;;;;;0.50;0.50;;;7.20;99.90;;;;;;4410966;32;20128;-74
2021/03/12 09:13:01;;;;;;;0.40;0.40;;;7.10;99.90;;;;;;4409730;32;20479;-73
2021/03/12 09:15:27;;;;;;;0.40;0.40;;;7.10;99.90;;;;;;4408324;32;20550;-72
2021/03/12 09:17:57;;;;;;;0.40;0.40;;;7.20;99.90;;;;;;4411022;32;20105;-73
2021/03/12 09:20:24;;;;;;;0.30;0.30;;;7.20;99.90;;;;;;4410171;32;20535;-74
2021/03/12 09:22:51;;;;;;;0.40;0.40;;;7.30;99.90;;;;;;4411345;32;20069;-74
2021/03/12 09:25:33;;;;;;;0.62;0.62;;;7.40;99.90;;;;;;4406222;32;20119;-74
2021/03/12 09:28:05;;;;;;;1.12;0.70;;;7.60;99.90;;;;;;4406002;32;20093;-74
2021/03/12 09:30:34;;;;;;;0.30;0.30;;;8.00;99.90;;;;;;4407483;32;20081;-74
2021/03/12 09:33:00;;;;;;;0.30;0.30;;;8.10;99.90;;;;;;4409336;32;20065;-74
2021/03/12 09:35:26;;;;;;;0.50;0.40;;;8.30;99.90;;;;;;4401438;32;20078;-73
2021/03/12 09:37:54;;;;;;;0.30;0.30;;;8.50;99.90;;;;;;4411447;32;20086;-73
2021/03/12 09:40:31;;;;;;;0.30;0.30;;;8.70;99.90;;;;;;4413464;32;20081;-74
2021/03/12 09:42:57;;;;;;;0.50;0.50;;;8.60;99.90;;;;;;4407358;32;20105;-74
2021/03/12 09:45:25;;;;;;;0.45;0.45;;;8.50;99.90;;;;;;4409650;32;20172;-73
2021/03/12 09:47:51;;;;;;;0.40;0.40;;;8.50;99.90;;;;;;4414524;32;20129;-73
2021/03/12 09:50:18;;;;;;;0.40;0.40;;;8.60;99.90;;;;;;4412006;32;20124;-73
2021/03/12 09:52:45;;;;;;;0.60;0.60;;;8.60;99.90;;;;;;4410908;32;20065;-72
2021/03/12 09:55:12;;;;;;;0.37;0.32;;;8.50;99.90;;;;;;4404771;32;20074;-72
2021/03/12 09:57:37;;;;;;;0.22;0.22;;;8.30;99.90;;;;;;4411759;32;20522;-72
2021/03/12 10:00:06;;;;;;;0.30;0.30;;;8.40;99.90;;;;;;4410974;32;20129;-72
2021/03/12 10:02:32;;;;;;;2.50;2.15;;;8.20;99.90;;;;;;4408373;32;20081;-72
2021/03/12 10:05:01;;;;;;;0.45;0.45;;;8.20;99.90;;;;;;4406374;32;20074;-74
2021/03/12 10:07:37;;;;;;;0.50;0.50;;;8.30;99.90;;;;;;4411412;32;20086;-73
2021/03/12 10:10:12;;;;;;;0.37;0.37;;;8.50;99.90;;;;;;4408297;32;20322;-74
2021/03/12 10:12:42;;;;;;;0.47;0.47;;;8.60;99.90;;;;;;4412379;32;20080;-73
2021/03/12 10:15:12;;;;;;;0.40;0.40;;;8.70;99.90;;;;;;4409783;32;20070;-73
2021/03/12 10:17:40;;;;;;;2.35;1.15;;;8.80;99.90;;;;;;4412434;32;20094;-73
2021/03/12 10:20:09;;;;;;;0.40;0.40;;;8.70;99.90;;;;;;4410644;32;20082;-73
2021/03/12 10:22:38;;;;;;;20.17;0.50;;;8.60;99.90;;;;;;4411952;32;20078;-73
2021/03/12 10:25:09;;;;;;;0.40;0.40;;;8.60;99.90;;;;;;4408639;32;20077;-73
2021/03/12 10:27:36;;;;;;;;;;;8.80;99.90;;;;;;4409582;32;20137;-73
2021/03/12 10:30:12;;;;;;;0.37;0.37;;;8.80;99.90;;;;;;4409229;32;20004;-73
2021/03/12 10:32:49;;;;;;;0.50;0.50;;;8.60;99.90;;;;;;4408349;32;20176;-73
2021/03/12 10:35:32;;;;;;;0.70;0.70;;;8.60;99.90;;;;;;4404661;32;20574;-74
2021/03/12 10:38:00;;;;;;;0.62;0.62;;;8.60;99.90;;;;;;4415190;32;20066;-72
2021/03/12 10:40:27;;;;;;;0.40;0.40;;;8.60;99.90;;;;;;4407978;32;20070;-72
2021/03/12 10:42:53;;;;;;;0.80;0.77;;;8.60;99.90;;;;;;4406979;32;20062;-72
2021/03/12 10:45:22;;;;;;;0.40;0.40;;;8.70;99.90;;;;;;4387235;32;627387;-73
2021/03/12 10:47:57;;;;;;;0.57;0.57;;;8.80;99.90;;;;;;4409287;32;20145;-73
2021/03/12 10:50:24;;;;;;;0.40;0.40;;;8.90;99.90;;;;;;4409862;32;20085;-73
2021/03/12 10:52:50;;;;;;;10.05;0.65;;;9.10;99.90;;;;;;4410858;32;20078;-72
2021/03/12 10:55:16;;;;;;;1.02;0.85;;;9.50;99.90;;;;;;4407315;32;20353;-72
2021/03/12 10:57:46;;;;;;;0.50;0.50;;;9.60;99.90;;;;;;4411897;32;20078;-73
2021/03/12 11:00:20;;;;;;;0.75;0.75;;;9.40;99.90;;;;;;4410800;32;20077;-73
2021/03/12 11:02:46;;;;;;;0.40;0.40;;;9.30;99.90;;;;;;4410015;32;20184;-73
2021/03/12 11:05:13;;;;;;;0.55;0.55;;;9.20;99.90;;;;;;4408041;32;20073;-72
2021/03/12 11:07:41;;;;;;;3.15;1.30;;;9.30;99.90;;;;;;4403845;32;20078;-72
2021/03/12 11:10:07;;;;;;;0.40;0.40;;;9.20;99.90;;;;;;4410692;32;20502;-72
2021/03/12 11:12:40;;;;;;;0.47;0.47;;;9.30;99.90;;;;;;4410875;32;20121;-72
2021/03/12 11:15:06;;;;;;;0.35;0.35;;;9.50;99.90;;;;;;4409582;32;20599;-72
2021/03/12 11:17:31;;;;;;;0.30;0.30;;;9.60;99.90;;;;;;4405009;32;20066;-72
2021/03/12 11:19:57;;;;;;;1.00;0.90;;;9.70;99.90;;;;;;4408278;32;20109;-73
2021/03/12 11:22:22;;;;;;;1.48;0.75;;;9.80;99.90;;;;;;4411688;32;20144;-73
2021/03/12 11:24:48;;;;;;;2.20;0.52;;;10.00;99.90;;;;;;4412678;32;20448;-74
2021/03/12 11:27:15;;;;;;;0.50;0.50;;;10.10;99.90;;;;;;4413256;32;20156;-73
2021/03/12 11:29:41;;;;;;;0.40;0.40;;;10.70;99.90;;;;;;4414819;32;20086;-72
2021/03/12 11:32:07;;;;;;;0.70;0.70;;;11.00;99.90;;;;;;4417785;32;20546;-72
2021/03/12 11:34:33;;;;;;;3.08;0.50;;;10.90;99.90;;;;;;4413235;32;20082;-72
2021/03/12 11:36:59;;;;;;;0.57;0.57;;;10.70;99.90;;;;;;4414766;32;20070;-72
2021/03/12 11:39:24;;;;;;;0.30;0.30;;;10.50;99.90;;;;;;4417278;32;20413;-72
2021/03/12 11:41:50;;;;;;;0.40;0.40;;;10.20;99.90;;;;;;4415532;32;20091;-72
2021/03/12 11:44:15;;;;;;;5.62;1.87;;;10.00;99.90;;;;;;4416233;32;20086;-72
2021/03/12 11:46:41;;;;;;;0.40;0.40;;;9.70;99.90;;;;;;4412796;32;20078;-72
2021/03/12 11:49:06;;;;;;;1.35;0.45;;;9.70;99.90;;;;;;4413738;32;20077;-72
2021/03/12 11:51:33;;;;;;;0.20;0.20;;;9.70;99.90;;;;;;4414101;32;20128;-72
2021/03/12 11:53:58;;;;;;;0.40;0.40;;;10.10;99.90;;;;;;4408271;32;20410;-73
2021/03/12 11:56:24;;;;;;;0.40;0.40;;;10.30;99.90;;;;;;4404549;32;20073;-73
2021/03/12 11:58:51;;;;;;;0.50;0.50;;;10.20;99.90;;;;;;4412881;32;20077;-73
2021/03/12 12:01:16;;;;;;;2.65;1.50;;;9.90;99.90;;;;;;4411984;32;20094;-73
2021/03/12 12:03:42;;;;;;;1.02;0.68;;;9.80;99.90;;;;;;4410073;32;20074;-73
2021/03/12 12:06:07;;;;;;;0.55;0.55;;;9.70;99.90;;;;;;4412897;32;20089;-73
2021/03/12 12:08:33;;;;;;;0.30;0.30;;;9.90;99.90;;;;;;4412626;32;20089;-73
2021/03/12 12:10:58;;;;;;;1.20;1.08;;;10.10;99.90;;;;;;4416753;32;20073;-73
2021/03/12 12:13:24;;;;;;;0.50;0.50;;;10.10;99.90;;;;;;4415509;32;20519;-72
2021/03/12 12:15:51;;;;;;;0.30;0.30;;;10.30;99.90;;;;;;4424512;32;20137;-72
2021/03/12 12:18:17;;;;;;;0.80;0.80;;;10.40;99.90;;;;;;4434908;32;20119;-72
2021/03/12 12:20:43;;;;;;;0.50;0.50;;;10.40;99.90;;;;;;4437999;32;20495;-73
2021/03/12 12:23:09;;;;;;;6.82;0.70;;;10.40;99.90;;;;;;4430395;32;20061;-73
2021/03/12 12:25:35;;;;;;;0.50;0.50;;;10.40;99.90;;;;;;4438443;32;20085;-73
2021/03/12 12:28:02;;;;;;;0.30;0.30;;;10.60;99.90;;;;;;4427268;32;20069;-73
2021/03/12 12:30:28;;;;;;;0.37;0.37;;;10.60;99.90;;;;;;4425686;32;20085;-73
2021/03/12 12:32:54;;;;;;;0.80;0.80;;;10.40;99.90;;;;;;4430630;32;20057;-73
2021/03/12 12:35:19;;;;;;;0.98;0.82;;;10.50;99.90;;;;;;4428115;32;20072;-73
2021/03/12 12:37:45;;;;;;;0.88;0.45;;;10.90;99.90;;;;;;4427905;32;20113;-73
2021/03/12 12:40:12;;;;;;;0.68;0.60;;;11.00;99.90;;;;;;4428092;32;20069;-73
2021/03/12 12:42:38;;;;;;;0.65;0.57;;;10.80;99.90;;;;;;4429442;32;20505;-73
2021/03/12 12:45:04;;;;;;;0.30;0.30;;;10.60;99.90;;;;;;4427351;32;20081;-73
2021/03/12 12:47:29;;;;;;;3.35;0.60;;;10.40;99.90;;;;;;4438380;32;20494;-73
2021/03/12 12:49:55;;;;;;;0.50;0.50;;;10.40;99.90;;;;;;4432555;32;20093;-73
2021/03/12 12:52:21;;;;;;;0.50;0.50;;;10.40;99.90;;;;;;4430154;32;20125;-74
2021/03/12 12:54:46;;;;;;;0.32;0.32;;;10.50;99.90;;;;;;4429438;32;20077;-73
2021/03/12 12:57:12;;;;;;;0.40;0.40;;;10.50;99.90;;;;;;4429963;32;20065;-73
2021/03/12 12:59:37;;;;;;;0.37;0.37;;;10.50;99.70;;;;;;4430203;32;20069;-73